createdAt,value
2018-12-19T02:30:30.910Z,8.10
2018-12-19T02:32:59.007Z,8.58
2018-12-19T02:35:26.940Z,7.75
2018-12-19T02:43:37.156Z,8.75
2018-12-19T02:48:45.244Z,9.20
2018-12-19T02:51:17.036Z,10.03
2018-12-19T03:10:44.437Z,11.95
2018-12-19T03:19:02.510Z,9.78
2018-12-19T03:21:31.160Z,10.00
2018-12-19T03:23:59.918Z,11.70
2018-12-19T03:26:29.036Z,10.90
2018-12-19T03:28:56.647Z,9.45
2018-12-19T03:31:46.815Z,11.30
2018-12-19T03:34:21.821Z,11.03
2018-12-19T03:40:58.522Z,9.70
2018-12-19T03:43:37.743Z,9.63
2018-12-19T03:46:05.360Z,9.65
2018-12-19T03:48:38.811Z,11.28
2018-12-19T03:59:41.642Z,9.10
2018-12-19T04:02:10.405Z,10.28
2018-12-19T04:04:38.019Z,10.80
2018-12-19T04:07:06.273Z,10.32
2018-12-19T04:09:44.775Z,10.30
2018-12-19T04:12:15.193Z,9.70
2018-12-19T04:14:43.807Z,9.35
2018-12-19T04:17:13.248Z,10.53
2018-12-19T04:19:43.685Z,10.25
2018-12-19T04:22:13.296Z,10.23
2018-12-19T04:24:43.043Z,8.70
2018-12-19T04:27:11.354Z,9.05
2018-12-19T04:29:42.337Z,8.43
2018-12-19T04:32:09.881Z,7.83
2018-12-19T04:34:37.390Z,7.62
2018-12-19T04:37:04.952Z,7.85
2018-12-19T04:39:32.500Z,6.60
2018-12-19T04:42:00.988Z,6.85
2018-12-19T04:44:29.262Z,6.58
2018-12-19T04:46:57.238Z,5.25
2018-12-19T04:49:24.791Z,6.35
2018-12-19T04:51:52.301Z,7.00
2018-12-19T04:54:19.845Z,5.22
2018-12-19T04:56:50.615Z,6.30
2018-12-19T04:59:18.735Z,5.20
2018-12-19T05:01:46.234Z,5.50
2018-12-19T05:04:14.158Z,5.40
2018-12-19T05:06:43.749Z,6.00
2018-12-19T05:09:14.169Z,5.28
2018-12-19T05:11:46.614Z,5.65
2018-12-19T05:14:14.494Z,5.25
2018-12-19T05:16:44.925Z,4.87
2018-12-19T05:19:12.503Z,4.65
2018-12-19T05:21:40.521Z,5.97
2018-12-19T05:24:08.163Z,5.35
2018-12-19T05:26:39.905Z,5.80
2018-12-19T05:29:07.468Z,5.30
2018-12-19T05:31:37.948Z,5.05
2018-12-19T05:34:05.502Z,4.58
2018-12-19T05:36:34.408Z,4.53
2018-12-19T05:39:05.980Z,5.15
2018-12-19T05:41:33.592Z,4.05
2018-12-19T05:44:01.189Z,4.08
2018-12-19T05:46:29.087Z,4.70
2018-12-19T05:48:56.650Z,4.08
2018-12-19T05:51:24.193Z,3.60
2018-12-19T05:53:51.788Z,4.37
2018-12-19T05:56:19.380Z,2.75
2018-12-19T05:58:46.900Z,2.47
2018-12-19T06:01:22.573Z,2.27
2018-12-19T06:03:50.094Z,2.12
2018-12-19T06:06:17.643Z,2.27
2018-12-19T06:08:45.148Z,2.80
2018-12-19T06:11:12.665Z,2.40
2018-12-19T06:13:40.196Z,2.58
2018-12-19T06:16:07.774Z,2.20
2018-12-19T06:18:35.318Z,3.00
2018-12-19T06:21:02.873Z,2.90
2018-12-19T06:23:30.433Z,2.60
2018-12-19T06:25:58.021Z,2.80
2018-12-19T06:28:25.543Z,2.55
2018-12-19T06:30:53.067Z,2.80
2018-12-19T06:33:20.621Z,2.55
2018-12-19T06:35:48.139Z,3.00
2018-12-19T06:38:15.651Z,2.60
2018-12-19T06:40:43.150Z,2.98
2018-12-19T06:43:10.703Z,3.10
2018-12-19T06:45:38.475Z,3.58
2018-12-19T06:48:06.005Z,2.95
2018-12-19T06:50:33.762Z,2.85
2018-12-19T06:53:01.259Z,3.20
2018-12-19T06:55:28.822Z,3.15
2018-12-19T06:57:56.358Z,3.00
2018-12-19T07:00:23.877Z,3.75
2018-12-19T07:02:51.493Z,2.80
2018-12-19T07:05:19.018Z,2.87
2018-12-19T07:07:46.569Z,3.30
2018-12-19T07:10:14.129Z,3.47
2018-12-19T07:12:41.674Z,3.50
2018-12-19T07:15:09.424Z,3.30
2018-12-19T07:17:36.944Z,3.50
2018-12-19T07:20:05.023Z,3.20
2018-12-19T07:22:32.588Z,3.30
2018-12-19T07:25:00.152Z,3.10
2018-12-19T07:27:27.702Z,2.98
2018-12-19T07:29:55.224Z,3.20
2018-12-19T07:32:22.774Z,3.40
2018-12-19T07:34:50.309Z,3.45
2018-12-19T07:37:17.836Z,3.62
2018-12-19T07:39:45.358Z,3.92
2018-12-19T07:42:12.929Z,3.50
2018-12-19T07:44:40.440Z,3.40
2018-12-19T07:47:07.972Z,3.30
2018-12-19T07:49:35.470Z,4.03
2018-12-19T07:52:03.009Z,3.42
2018-12-19T07:54:30.524Z,4.08
2018-12-19T07:56:58.057Z,3.20
2018-12-19T07:59:25.576Z,3.58
2018-12-19T08:01:53.145Z,3.83
2018-12-19T08:04:21.071Z,3.35
2018-12-19T08:06:48.615Z,3.52
2018-12-19T08:09:16.123Z,3.40
2018-12-19T08:11:43.663Z,3.80
2018-12-19T08:14:11.188Z,3.95
2018-12-19T08:16:38.737Z,4.58
2018-12-19T08:19:06.269Z,3.77
2018-12-19T08:21:33.781Z,4.45
2018-12-19T08:24:01.320Z,3.67
2018-12-19T08:26:28.884Z,3.12
2018-12-19T08:28:56.536Z,3.52
2018-12-19T08:31:24.252Z,4.30
2018-12-19T08:33:51.798Z,4.12
2018-12-19T08:36:19.357Z,3.65
2018-12-19T08:38:46.874Z,3.25
2018-12-19T08:41:14.402Z,3.17
2018-12-19T08:43:41.975Z,3.58
2018-12-19T08:46:14.503Z,3.60
2018-12-19T08:48:39.019Z,3.50
2018-12-19T08:51:06.576Z,3.90
2018-12-19T08:53:34.112Z,3.87
2018-12-19T08:56:01.665Z,3.70
2018-12-19T08:58:29.186Z,3.27
2018-12-19T09:00:56.762Z,3.75
2018-12-19T09:03:24.406Z,3.90
2018-12-19T09:05:51.937Z,3.95
2018-12-19T09:08:19.506Z,3.40
2018-12-19T09:10:47.017Z,3.42
2018-12-19T09:13:14.564Z,3.52
2018-12-19T09:15:50.998Z,3.95
2018-12-19T09:18:19.131Z,3.40
2018-12-19T09:20:46.930Z,3.30
2018-12-19T09:23:14.717Z,3.42
2018-12-19T09:25:42.269Z,3.92
2018-12-19T09:28:09.814Z,3.55
2018-12-19T09:30:37.433Z,4.00
2018-12-19T09:33:05.012Z,4.00
2018-12-19T09:35:32.605Z,4.12
2018-12-19T09:38:00.141Z,4.05
2018-12-19T09:40:27.667Z,4.70
2018-12-19T09:42:55.199Z,4.92
2018-12-19T09:45:22.699Z,4.72
2018-12-19T09:47:50.288Z,5.12
2018-12-19T09:50:17.808Z,4.60
2018-12-19T09:52:45.386Z,4.83
2018-12-19T09:55:12.931Z,4.85
2018-12-19T09:57:40.531Z,4.53
2018-12-19T10:00:11.679Z,5.45
2018-12-19T10:02:39.849Z,4.90
2018-12-19T10:05:07.633Z,4.10
2018-12-19T10:07:35.147Z,5.10
2018-12-19T10:10:02.773Z,4.40
2018-12-19T10:12:30.290Z,5.37
2018-12-19T10:14:57.842Z,5.07
2018-12-19T10:17:25.396Z,5.93
2018-12-19T10:19:52.906Z,5.15
2018-12-19T10:22:22.432Z,5.30
2018-12-19T10:24:55.647Z,4.85
2018-12-19T10:27:23.979Z,4.20
2018-12-19T10:29:51.629Z,4.37
2018-12-19T10:32:19.188Z,4.87
2018-12-19T10:34:46.710Z,5.40
2018-12-19T10:37:14.275Z,4.70
2018-12-19T10:39:42.031Z,5.00
2018-12-19T10:42:09.552Z,4.80
2018-12-19T10:44:37.073Z,5.40
2018-12-19T10:47:04.600Z,5.47
2018-12-19T10:49:32.116Z,5.77
2018-12-19T10:51:59.652Z,4.70
2018-12-19T10:54:27.169Z,5.50
2018-12-19T10:56:55.188Z,5.13
2018-12-19T10:59:22.700Z,5.00
2018-12-19T11:01:50.957Z,4.27
2018-12-19T11:04:18.964Z,4.70
2018-12-19T11:06:46.493Z,4.90
2018-12-19T11:09:14.039Z,4.80
2018-12-19T11:11:41.552Z,5.08
2018-12-19T11:14:09.113Z,4.58
2018-12-19T11:16:36.674Z,4.72
2018-12-19T11:19:04.249Z,5.10
2018-12-19T11:21:31.796Z,4.80
2018-12-19T11:23:59.433Z,4.60
2018-12-19T11:26:27.733Z,4.77
2018-12-19T11:28:55.300Z,4.65
2018-12-19T11:31:22.836Z,5.23
2018-12-19T11:33:50.361Z,5.15
2018-12-19T11:36:17.923Z,4.53
2018-12-19T11:38:45.448Z,4.30
2018-12-19T11:41:12.996Z,4.70
2018-12-19T11:43:40.548Z,4.57
2018-12-19T11:46:08.065Z,4.97
2018-12-19T11:48:35.608Z,4.50
2018-12-19T11:51:03.165Z,4.25
2018-12-19T11:53:30.981Z,4.50
2018-12-19T11:55:58.556Z,4.63
2018-12-19T11:58:26.111Z,4.70
2018-12-19T12:00:53.749Z,4.33
2018-12-19T12:03:22.271Z,4.10
2018-12-19T12:05:49.893Z,3.90
2018-12-19T12:08:17.489Z,4.10
2018-12-19T12:10:45.048Z,4.63
2018-12-19T12:13:12.562Z,5.07
2018-12-19T12:15:40.103Z,5.30
2018-12-19T12:18:07.623Z,4.70
2018-12-19T12:20:35.161Z,5.00
2018-12-19T12:23:02.730Z,5.50
2018-12-19T12:25:30.265Z,5.67
2018-12-19T12:27:57.818Z,5.60
2018-12-19T12:30:25.366Z,5.40
2018-12-19T12:32:52.895Z,5.43
2018-12-19T12:35:20.388Z,5.27
2018-12-19T12:37:48.003Z,4.90
2018-12-19T12:40:15.525Z,5.17
2018-12-19T12:42:43.061Z,4.50
2018-12-19T12:45:10.674Z,4.60
2018-12-19T12:47:38.251Z,5.60
2018-12-19T12:50:06.021Z,5.00
2018-12-19T12:52:33.555Z,4.53
2018-12-19T12:55:01.108Z,5.20
2018-12-19T12:57:28.608Z,4.77
2018-12-19T12:59:56.251Z,4.93
2018-12-19T13:02:23.826Z,5.13
2018-12-19T13:04:51.408Z,5.40
2018-12-19T13:07:18.952Z,5.07
2018-12-19T13:09:46.569Z,4.40
2018-12-19T13:12:14.066Z,4.20
2018-12-19T13:14:41.599Z,5.43
2018-12-19T13:17:09.149Z,4.97
2018-12-19T13:19:36.683Z,5.33
2018-12-19T13:22:04.231Z,5.27
2018-12-19T13:24:31.795Z,4.53
2018-12-19T13:26:59.319Z,5.10
2018-12-19T13:29:26.860Z,5.03
2018-12-19T13:31:54.526Z,4.93
2018-12-19T13:34:22.064Z,5.60
2018-12-19T13:36:49.612Z,5.30
2018-12-19T13:39:17.184Z,5.50
2018-12-19T13:41:44.727Z,5.63
2018-12-19T13:44:12.273Z,5.83
2018-12-19T13:46:39.864Z,5.97
2018-12-19T13:49:08.771Z,6.08
2018-12-19T13:51:36.369Z,5.90
2018-12-19T13:54:03.988Z,6.03
2018-12-19T13:56:31.755Z,6.03
2018-12-19T13:58:59.553Z,6.47
2018-12-19T14:01:27.098Z,5.97
2018-12-19T14:03:54.647Z,6.60
2018-12-19T14:06:22.238Z,6.15
2018-12-19T14:08:49.747Z,6.33
2018-12-19T14:11:17.261Z,6.50
2018-12-19T14:13:44.959Z,6.10
2018-12-19T14:16:12.503Z,5.95
2018-12-19T14:18:40.121Z,7.15
2018-12-19T14:21:07.657Z,6.37
2018-12-19T14:23:35.259Z,6.72
2018-12-19T14:26:02.844Z,6.30
2018-12-19T14:28:30.546Z,6.50
2018-12-19T14:30:58.109Z,7.70
2018-12-19T14:33:25.754Z,7.70
2018-12-19T14:35:53.298Z,6.97
2018-12-19T14:38:21.022Z,6.60
2018-12-19T14:40:48.586Z,6.60
2018-12-19T14:43:20.250Z,7.10
2018-12-19T14:45:47.832Z,6.73
2018-12-19T14:48:15.413Z,6.70
2018-12-19T14:50:42.958Z,7.87
2018-12-19T14:53:10.559Z,6.90
2018-12-19T14:55:38.175Z,7.10
2018-12-19T14:58:05.748Z,7.60
2018-12-19T15:00:33.451Z,7.78
2018-12-19T15:03:01.040Z,7.17
2018-12-19T15:05:28.631Z,7.15
2018-12-19T15:07:56.215Z,6.90
2018-12-19T15:10:23.834Z,6.90
2018-12-19T15:12:51.366Z,6.55
2018-12-19T15:15:18.901Z,7.22
2018-12-19T15:17:46.461Z,6.08
2018-12-19T15:20:14.040Z,6.58
2018-12-19T15:22:41.639Z,6.42
2018-12-19T15:25:09.243Z,6.92
2018-12-19T15:27:36.817Z,6.53
2018-12-19T15:30:05.358Z,6.67
2018-12-19T15:32:33.218Z,6.40
2018-12-19T15:35:00.800Z,6.30
2018-12-19T15:37:28.855Z,6.58
2018-12-19T15:39:56.569Z,7.20
2018-12-19T15:42:24.115Z,7.00
2018-12-19T15:44:51.687Z,6.92
2018-12-19T15:47:19.397Z,6.05
2018-12-19T15:49:47.046Z,7.87
2018-12-19T15:52:14.583Z,7.78
2018-12-19T15:54:42.129Z,7.00
2018-12-19T15:57:09.705Z,7.87
2018-12-19T15:59:37.242Z,8.33
2018-12-19T16:02:04.863Z,7.58
2018-12-19T16:04:32.381Z,7.17
2018-12-19T16:06:59.924Z,8.03
2018-12-19T16:09:27.439Z,8.25
2018-12-19T16:11:54.960Z,6.42
2018-12-19T16:14:22.590Z,6.30
2018-12-19T16:16:50.139Z,6.97
2018-12-19T16:19:17.804Z,6.53
2018-12-19T16:21:45.364Z,6.45
2018-12-19T16:24:12.943Z,6.28
2018-12-19T16:26:40.477Z,5.72
2018-12-19T16:29:08.040Z,6.17
2018-12-19T16:31:35.566Z,5.80
2018-12-19T16:34:03.211Z,7.05
2018-12-19T16:36:30.728Z,8.40
2018-12-19T16:38:58.274Z,8.05
2018-12-19T16:41:25.925Z,8.33
2018-12-19T16:43:53.431Z,7.17
2018-12-19T16:46:20.984Z,6.50
2018-12-19T16:48:48.553Z,5.78
2018-12-19T16:51:16.083Z,5.20
2018-12-19T16:53:43.850Z,5.78
2018-12-19T16:56:11.377Z,6.00
2018-12-19T16:58:38.908Z,5.85
2018-12-19T17:01:06.508Z,6.08
2018-12-19T17:03:34.011Z,6.40
2018-12-19T17:06:02.845Z,6.78
2018-12-19T17:08:31.087Z,5.22
2018-12-19T17:10:58.670Z,5.17
2018-12-19T17:13:26.184Z,6.65
2018-12-19T17:15:53.804Z,5.80
2018-12-19T17:18:21.340Z,6.47
2018-12-19T17:20:48.874Z,6.12
2018-12-19T17:23:16.401Z,4.90
2018-12-19T17:25:43.950Z,6.40
2018-12-19T17:28:11.542Z,7.95
2018-12-19T17:30:39.139Z,6.58
2018-12-19T17:33:06.859Z,7.62
2018-12-19T17:35:38.603Z,7.03
2018-12-19T17:38:08.889Z,6.70
2018-12-19T17:40:38.144Z,7.17
2018-12-19T17:43:05.906Z,7.00
2018-12-19T17:45:35.253Z,7.55
2018-12-19T17:48:04.933Z,7.83
2018-12-19T17:50:38.117Z,7.47
2018-12-19T17:53:08.482Z,6.00
2018-12-19T17:55:38.504Z,5.62
2018-12-19T17:58:07.584Z,6.65
2018-12-19T18:00:35.656Z,5.80
2018-12-19T18:03:03.316Z,5.47
2018-12-19T18:05:30.947Z,5.47
2018-12-19T18:07:58.633Z,5.37
2018-12-19T18:10:26.389Z,5.90
2018-12-19T18:12:54.303Z,5.50
2018-12-19T18:15:22.846Z,5.65
2018-12-19T18:17:51.903Z,6.30
2018-12-19T18:20:19.667Z,6.60
2018-12-19T18:22:47.225Z,6.65
2018-12-19T18:25:15.015Z,5.70
2018-12-19T18:27:43.066Z,6.37
2018-12-19T18:30:10.692Z,5.85
2018-12-19T18:32:38.320Z,5.70
2018-12-19T18:35:06.262Z,6.17
2018-12-19T18:37:35.893Z,6.47
2018-12-19T18:40:04.012Z,5.10
2018-12-19T18:42:32.562Z,5.95
2018-12-19T18:45:00.709Z,5.95
2018-12-19T18:47:28.347Z,5.15
2018-12-19T18:49:55.962Z,6.00
2018-12-19T18:52:23.891Z,7.20
2018-12-19T18:54:52.176Z,5.80
2018-12-19T18:57:19.860Z,6.67
2018-12-19T18:59:47.672Z,7.03
2018-12-19T19:02:15.269Z,5.67
2018-12-19T19:04:43.056Z,6.30
2018-12-19T19:07:10.700Z,6.55
2018-12-19T19:09:38.269Z,6.87
2018-12-19T19:12:05.984Z,6.97
2018-12-19T19:14:33.587Z,5.65
2018-12-19T19:17:01.342Z,6.17
2018-12-19T19:19:28.870Z,7.08
2018-12-19T19:21:56.646Z,7.30
2018-12-19T19:24:24.184Z,6.70
2018-12-19T19:26:52.113Z,6.92
2018-12-19T19:29:19.751Z,7.50
2018-12-19T19:31:47.495Z,7.03
2018-12-19T19:34:15.096Z,7.35
2018-12-19T19:36:42.718Z,8.10
2018-12-19T19:39:10.453Z,7.60
2018-12-19T19:41:38.031Z,7.42
2018-12-19T19:44:05.647Z,8.03
2018-12-19T19:46:33.169Z,6.95
2018-12-19T19:49:00.730Z,9.18
2018-12-19T19:51:28.271Z,7.35
2018-12-19T19:53:55.823Z,7.60
2018-12-19T19:56:23.341Z,8.55
2018-12-19T19:58:50.889Z,7.80
2018-12-19T20:01:18.398Z,8.18
2018-12-19T20:03:45.997Z,8.15
2018-12-19T20:06:13.549Z,7.87
2018-12-19T20:08:41.086Z,8.28
2018-12-19T20:11:08.606Z,7.67
2018-12-19T20:13:36.182Z,7.75
2018-12-19T20:16:03.769Z,8.80
2018-12-19T20:18:31.428Z,7.92
2018-12-19T20:20:59.030Z,7.65
2018-12-19T20:23:26.585Z,8.08
2018-12-19T20:25:54.156Z,7.83
2018-12-19T20:28:21.652Z,7.67
2018-12-19T20:30:49.201Z,8.28
2018-12-19T20:33:16.813Z,8.85
2018-12-19T20:35:44.378Z,8.45
2018-12-19T20:38:12.209Z,7.95
2018-12-19T20:40:39.748Z,8.65
2018-12-19T20:43:08.541Z,8.03
2018-12-19T20:45:36.153Z,9.35
2018-12-19T20:48:03.718Z,8.85
2018-12-19T20:50:31.606Z,8.38
2018-12-19T20:52:59.381Z,7.83
2018-12-19T20:55:26.948Z,8.80
2018-12-19T20:57:54.539Z,9.90
2018-12-19T21:00:22.234Z,8.93
2018-12-19T21:02:49.840Z,9.05
2018-12-19T21:05:17.389Z,8.68
2018-12-19T21:07:45.002Z,7.92
2018-12-19T21:10:12.615Z,8.75
2018-12-19T21:12:40.130Z,8.78
2018-12-19T21:15:08.219Z,10.13
2018-12-19T21:17:41.695Z,9.00
2018-12-19T21:20:09.304Z,7.83
2018-12-19T21:22:36.991Z,8.58
2018-12-19T21:25:05.096Z,8.55
2018-12-19T21:27:32.620Z,7.92
2018-12-19T21:30:00.187Z,8.40
2018-12-19T21:32:27.843Z,7.97
2018-12-19T21:34:55.370Z,7.92
2018-12-19T21:37:23.030Z,7.40
2018-12-19T21:39:50.746Z,8.38
2018-12-19T21:42:18.363Z,8.30
2018-12-19T21:44:46.027Z,8.98
2018-12-19T21:47:13.673Z,7.85
2018-12-19T21:49:41.442Z,9.60
2018-12-19T21:52:09.049Z,9.25
2018-12-19T21:54:36.715Z,9.38
2018-12-19T21:57:07.041Z,9.88
2018-12-19T21:59:34.812Z,9.90
2018-12-19T22:02:02.333Z,9.50
2018-12-19T22:04:29.960Z,10.13
2018-12-19T22:06:57.536Z,10.40
2018-12-19T22:09:25.158Z,9.65
2018-12-19T22:11:52.675Z,10.72
2018-12-19T22:14:20.415Z,11.85
2018-12-19T22:16:53.729Z,13.55
2018-12-19T22:19:21.359Z,13.22
2018-12-19T22:21:49.015Z,12.55
2018-12-19T22:24:16.712Z,13.88
2018-12-19T22:26:44.303Z,11.48
2018-12-19T22:29:12.079Z,13.00
2018-12-19T22:31:39.657Z,13.35
2018-12-19T22:34:07.171Z,14.70
2018-12-19T22:36:34.759Z,14.28
2018-12-19T22:39:02.496Z,14.10
2018-12-19T22:41:30.161Z,15.20
2018-12-19T22:43:57.909Z,16.10
2018-12-19T22:46:25.515Z,14.53
2018-12-19T22:48:53.153Z,15.55
2018-12-19T22:51:20.703Z,16.73
2018-12-19T22:53:48.357Z,16.25
2018-12-19T22:56:16.054Z,17.20
2018-12-19T22:58:43.609Z,19.05
2018-12-19T23:01:17.004Z,19.30
2018-12-19T23:06:50.396Z,18.90
2018-12-19T23:09:18.146Z,19.90
2018-12-19T23:11:45.736Z,19.82
2018-12-19T23:14:15.483Z,21.37
2018-12-19T23:16:42.789Z,19.60
2018-12-19T23:19:10.345Z,21.15
2018-12-19T23:21:37.933Z,22.07
2018-12-19T23:24:05.570Z,19.55
2018-12-19T23:26:33.201Z,20.15
2018-12-19T23:29:02.816Z,19.57
2018-12-19T23:31:30.640Z,18.50
2018-12-19T23:33:58.289Z,19.02
2018-12-19T23:36:25.993Z,18.02
2018-12-19T23:38:53.647Z,18.57
2018-12-19T23:41:22.923Z,17.40
2018-12-19T23:43:50.649Z,19.05
2018-12-19T23:46:18.335Z,17.90
2018-12-19T23:48:46.026Z,16.27
2018-12-19T23:51:13.575Z,19.55
2018-12-19T23:53:41.891Z,18.00
2018-12-19T23:56:09.548Z,15.13
2018-12-19T23:58:37.174Z,14.25
